Time;durP1;ratioP1;P1;durP2;ratioP2;P2;SDS_P1;SDS_P2;PMS_P1;PMS_P2;Temp;Humidity;BMP_temperature;BMP_pressure;BME280_temperature;BME280_humidity;BME280_pressure;Samples;Min_cycle;Max_cycle;Signal;HPM_P1;HPM_P2
2021/11/19 00:00:27;;;;;;;30.42;14.52;;;;;;;10.35;86.05;99841.19;5090627;28;20044;-93
2021/11/19 00:02:53;;;;;;;32.55;14.23;;;;;;;10.36;86.15;99830.50;5093628;28;20546;-93
2021/11/19 00:05:21;;;;;;;28.92;13.15;;;;;;;10.43;85.68;99840.22;5092365;28;20067;-94
2021/11/19 00:07:51;;;;;;;31.48;14.05;;;;;;;10.23;86.00;99813.75;5090501;28;20055;-93
2021/11/19 00:10:17;;;;;;;31.38;16.10;;;;;;;10.52;86.02;99846.31;5089913;28;20058;-91
2021/11/19 00:12:43;;;;;;;29.95;13.30;;;;;;;10.47;85.93;99838.38;5092699;28;20060;-93
2021/11/19 00:15:10;;;;;;;31.02;14.00;;;;;;;10.54;85.51;99847.19;5091182;28;20043;-92
2021/11/19 00:17:37;;;;;;;28.23;13.73;;;;;;;10.41;85.32;99810.09;5093225;28;20433;-92
2021/11/19 00:20:06;;;;;;;29.42;13.45;;;;;;;10.61;84.50;99831.16;5096752;28;20048;-92
2021/11/19 00:22:34;;;;;;;;;;;;;;;10.65;84.60;99842.66;5097486;28;20032;-92
2021/11/19 00:25:00;;;;;;;27.02;12.43;;;;;;;10.50;84.67;99800.28;5097743;28;19919;-92
2021/11/19 00:27:26;;;;;;;30.42;12.15;;;;;;;10.60;84.01;99808.09;5096867;28;20071;-93
2021/11/19 00:29:52;;;;;;;22.85;11.57;;;;;;;10.68;84.16;99821.34;5097212;28;20039;-92
2021/11/19 00:32:19;;;;;;;27.48;13.40;;;;;;;10.50;84.69;99811.78;5095969;28;20071;-94
2021/11/19 00:34:45;;;;;;;25.23;11.70;;;;;;;10.47;84.53;99798.50;5097184;28;20067;-93
2021/11/19 00:37:11;;;;;;;24.30;11.80;;;;;;;10.48;84.51;99798.50;5097536;28;20040;-92
2021/11/19 00:39:44;;;;;;;26.02;11.25;;;;;;;10.40;84.63;99791.50;5096290;28;20044;-94
2021/11/19 00:42:10;;;;;;;27.50;14.07;;;;;;;10.51;84.35;99792.25;5095827;28;20044;-92
2021/11/19 00:44:37;;;;;;;23.50;11.68;;;;;;;10.54;83.88;99796.66;5096602;28;20055;-92
2021/11/19 00:47:04;;;;;;;25.17;12.30;;;;;;;10.43;84.04;99800.31;5095523;28;20044;-93
2021/11/19 00:49:33;;;;;;;22.48;11.27;;;;;;;10.50;84.35;99817.09;5095281;28;20040;-93
2021/11/19 00:52:01;;;;;;;30.00;12.38;;;;;;;10.37;84.68;99807.47;5096937;28;20073;-94
2021/11/19 00:54:29;;;;;;;25.67;11.95;;;;;;;10.37;84.73;99821.66;5096215;28;20127;-94
2021/11/19 00:57:00;;;;;;;29.13;14.20;;;;;;;10.37;84.64;99820.78;5096017;28;20036;-91
2021/11/19 00:59:30;;;;;;;23.20;11.93;;;;;;;10.28;84.67;99806.63;5096464;28;20051;-92
2021/11/19 01:01:58;;;;;;;28.08;13.27;;;;;;;10.31;84.97;99813.72;5096065;28;20074;-91
2021/11/19 01:04:25;;;;;;;34.92;15.15;;;;;;;10.30;84.93;99811.06;5095522;28;20055;-93
2021/11/19 01:06:52;;;;;;;27.75;12.55;;;;;;;10.30;85.12;99819.03;5095868;28;20386;-93
2021/11/19 01:09:21;;;;;;;28.05;14.48;;;;;;;10.19;85.46;99817.34;5097123;28;20485;-94
2021/11/19 01:11:47;;;;;;;26.20;13.25;;;;;;;10.21;85.53;99830.59;5095090;28;20035;-93
2021/11/19 01:14:23;;;;;;;30.00;14.38;;;;;;;10.13;85.84;99821.81;5095460;28;20028;-93
2021/11/19 01:16:54;;;;;;;30.77;12.90;;;;;;;10.13;85.91;99828.03;5094304;28;20051;-90
2021/11/19 01:19:27;;;;;;;29.80;13.50;;;;;;;9.91;86.72;99808.72;5095232;28;20044;-91
2021/11/19 01:21:56;;;;;;;27.38;12.73;;;;;;;9.89;86.63;99810.50;5094079;28;20052;-91
2021/11/19 01:24:23;;;;;;;32.72;13.73;;;;;;;9.85;86.92;99806.13;5086590;28;20032;-92
2021/11/19 01:26:49;;;;;;;29.20;13.57;;;;;;;9.96;86.78;99824.63;5096338;28;20436;-93
2021/11/19 01:29:18;;;;;;;27.65;12.75;;;;;;;9.78;87.27;99801.72;5096006;28;20032;-91
2021/11/19 01:31:47;;;;;;;28.23;13.52;;;;;;;9.84;87.09;99812.31;5093226;28;20052;-93
2021/11/19 01:34:13;;;;;;;27.90;12.10;;;;;;;9.99;86.88;99827.25;5095273;28;20047;-92
2021/11/19 01:36:39;;;;;;;27.50;13.02;;;;;;;9.90;86.52;99806.94;5094272;28;20044;-92
2021/11/19 01:39:08;;;;;;;30.88;15.13;;;;;;;9.93;86.24;99806.94;5095789;28;20082;-93
2021/11/19 01:41:38;;;;;;;27.50;12.03;;;;;;;9.97;86.25;99806.00;5094780;28;20573;-91
2021/11/19 01:44:16;;;;;;;26.33;12.32;;;;;;;9.90;86.61;99803.41;5092499;28;20047;-92
2021/11/19 01:46:46;;;;;;;26.17;12.00;;;;;;;10.02;86.55;99821.94;5093140;28;20040;-92
2021/11/19 01:49:12;;;;;;;26.40;12.00;;;;;;;9.85;86.51;99790.19;5094054;28;20502;-94
2021/11/19 01:51:43;;;;;;;25.77;12.43;;;;;;;9.94;86.38;99798.06;5095711;28;20040;-93
2021/11/19 01:54:14;;;;;;;29.52;12.27;;;;;;;9.90;86.04;99784.81;5095683;28;20047;-91
2021/11/19 01:56:44;;;;;;;22.67;11.63;;;;;;;10.02;85.88;99796.22;5094737;28;20036;-93
2021/11/19 01:59:13;;;;;;;23.73;10.98;;;;;;;10.07;85.24;99786.44;5095211;28;20428;-90
2021/11/19 02:01:44;;;;;;;24.10;11.98;;;;;;;10.14;85.21;99803.19;5094062;28;20478;-92
2021/11/19 02:04:13;;;;;;;28.15;12.02;;;;;;;10.20;85.23;99807.59;5094470;28;20036;-93
2021/11/19 02:06:44;;;;;;;25.30;12.18;;;;;;;10.18;84.77;99804.06;5095499;28;20074;-91
2021/11/19 02:09:18;;;;;;;25.38;10.70;;;;;;;10.38;84.26;99831.38;5094999;28;20032;-92
2021/11/19 02:11:53;;;;;;;24.65;11.07;;;;;;;10.20;84.51;99808.47;5095007;28;20085;-91
2021/11/19 02:14:28;;;;;;;23.45;11.10;;;;;;;10.24;84.76;99825.28;5095752;28;20127;-92
2021/11/19 02:16:59;;;;;;;25.38;11.38;;;;;;;10.12;84.93;99814.75;5093116;28;20126;-94
2021/11/19 02:19:30;;;;;;;26.00;11.55;;;;;;;9.96;85.47;99801.59;5090642;28;20044;-94
2021/11/19 02:21:59;;;;;;;26.25;11.30;;;;;;;10.07;85.24;99834.28;5095715;28;20044;-92
2021/11/19 02:24:29;;;;;;;25.10;11.73;;;;;;;9.83;85.49;99810.56;5093863;28;20044;-93
2021/11/19 02:26:58;;;;;;;21.48;11.02;;;;;;;9.82;85.31;99811.44;5095197;28;20047;-92
2021/11/19 02:29:28;;;;;;;30.50;11.73;;;;;;;9.79;85.05;99796.41;5094968;28;20035;-94
2021/11/19 02:31:59;;;;;;;25.63;11.53;;;;;;;9.85;85.46;99822.06;5093571;28;20083;-95
2021/11/19 02:34:29;;;;;;;27.00;11.60;;;;;;;9.75;86.04;99826.53;5075809;28;20269;-93
2021/11/19 02:36:59;;;;;;;23.02;11.27;;;;;;;9.64;86.43;99810.66;5075660;28;20044;-93
2021/11/19 02:39:28;;;;;;;28.55;12.45;;;;;;;9.73;86.51;99832.75;5073004;28;20486;-92
2021/11/19 02:42:00;;;;;;;23.92;11.25;;;;;;;9.69;86.41;99818.59;5075537;28;20032;-94
2021/11/19 02:44:34;;;;;;;24.27;11.52;;;;;;;9.70;86.09;99812.41;5073176;28;20063;-93
2021/11/19 02:47:08;;;;;;;25.85;11.30;;;;;;;9.73;86.13;99811.50;5067827;28;20111;-91
2021/11/19 02:49:34;;;;;;;23.20;11.70;;;;;;;9.85;85.55;99814.97;5074220;28;20131;-93
2021/11/19 02:52:00;;;;;;;25.08;12.05;;;;;;;9.72;85.65;99785.84;5074105;28;20124;-93
2021/11/19 02:54:29;;;;;;;23.35;11.00;;;;;;;9.73;85.35;99798.22;5074636;28;20032;-94
2021/11/19 02:56:57;;;;;;;27.08;12.27;;;;;;;9.87;84.96;99801.66;5074480;28;20052;-93
2021/11/19 02:59:24;;;;;;;27.92;12.45;;;;;;;9.73;84.86;99784.94;5075075;28;20049;-91
2021/11/19 03:01:53;;;;;;;26.42;11.55;;;;;;;9.94;84.94;99829.94;5072283;28;20040;-94
2021/11/19 03:04:24;;;;;;;25.15;11.73;;;;;;;9.70;85.57;99798.25;5074809;28;20060;-94
2021/11/19 03:06:52;;;;;;;27.35;12.40;;;;;;;9.83;85.67;99823.84;5073433;28;20051;-90
2021/11/19 03:09:22;;;;;;;22.38;10.82;;;;;;;9.87;85.57;99823.81;5073594;28;20063;-94
2021/11/19 03:11:50;;;;;;;25.90;11.65;;;;;;;9.85;84.96;99811.44;5073685;28;20098;-89
2021/11/19 03:14:18;;;;;;;26.85;11.77;;;;;;;10.00;84.58;99819.28;5073508;28;20547;-93
2021/11/19 03:16:44;;;;;;;21.33;10.18;;;;;;;9.90;84.56;99808.72;5072747;28;20044;-91
2021/11/19 03:19:12;;;;;;;23.63;10.30;;;;;;;9.92;83.92;99785.69;5073667;28;20046;-91
2021/11/19 03:21:40;;;;;;;21.10;10.20;;;;;;;9.99;83.87;99782.94;5073406;28;20036;-90
2021/11/19 03:24:09;;;;;;;22.33;10.43;;;;;;;9.95;83.99;99788.31;5071805;28;20040;-92
2021/11/19 03:26:36;;;;;;;25.33;11.45;;;;;;;10.00;83.76;99787.38;5073742;28;20066;-91
2021/11/19 03:29:05;;;;;;;22.05;10.32;;;;;;;10.04;83.73;99802.41;5073849;28;20040;-93
2021/11/19 03:31:34;;;;;;;24.48;11.63;;;;;;;10.01;83.56;99794.44;5070950;28;20102;-92
2021/11/19 03:34:00;;;;;;;23.00;9.80;;;;;;;10.11;83.54;99813.00;5074162;28;20041;-94
2021/11/19 03:36:27;;;;;;;19.75;10.13;;;;;;;9.96;83.98;99798.94;5074132;28;20032;-92
2021/11/19 03:38:59;;;;;;;24.95;11.20;;;;;;;10.05;83.75;99808.59;5073985;28;20667;-92
2021/11/19 03:41:30;;;;;;;21.27;11.00;;;;;;;10.09;83.76;99815.66;5072501;28;20041;-91
2021/11/19 03:44:00;;;;;;;20.27;10.00;;;;;;;10.07;83.18;99799.72;5072365;28;20052;-92
2021/11/19 03:46:29;;;;;;;21.05;10.07;;;;;;;10.06;83.04;99799.72;5069393;28;20048;-93
2021/11/19 03:48:58;;;;;;;19.10;9.38;;;;;;;10.15;82.67;99817.38;5074046;28;20055;-94
2021/11/19 03:51:27;;;;;;;20.60;10.52;;;;;;;10.17;82.72;99815.56;5073334;28;20456;-91
2021/11/19 03:53:55;;;;;;;23.52;10.20;;;;;;;10.19;82.82;99828.00;5075630;28;20047;-93
2021/11/19 03:56:21;;;;;;;20.88;10.70;;;;;;;10.06;83.33;99816.56;5077513;28;20039;-92
2021/11/19 03:58:49;;;;;;;22.45;11.23;;;;;;;10.07;82.91;99806.81;5077614;28;20036;-92
2021/11/19 04:01:19;;;;;;;21.23;9.85;;;;;;;10.08;82.77;99809.47;5078307;28;20398;-93
2021/11/19 04:03:48;;;;;;;18.98;9.50;;;;;;;10.11;82.66;99811.22;5076941;28;20147;-91
2021/11/19 04:06:15;;;;;;;22.65;10.10;;;;;;;10.10;83.08;99833.34;5078570;28;20046;-93
2021/11/19 04:08:41;;;;;;;22.17;10.23;;;;;;;9.90;83.44;99800.75;5077489;28;20040;-92
2021/11/19 04:11:09;;;;;;;19.85;9.70;;;;;;;9.88;83.92;99822.03;5077320;28;20105;-91
2021/11/19 04:13:35;;;;;;;21.40;10.73;;;;;;;9.92;83.94;99841.50;5077134;28;20417;-93
2021/11/19 04:16:05;;;;;;;22.77;10.88;;;;;;;9.88;83.88;99832.66;5075907;28;20123;-92
2021/11/19 04:18:31;;;;;;;22.75;10.27;;;;;;;9.80;84.35;99821.19;5074911;28;20517;-93
2021/11/19 04:20:59;;;;;;;20.75;10.40;;;;;;;9.78;83.70;99812.34;5077255;28;20078;-92
2021/11/19 04:23:25;;;;;;;22.48;10.43;;;;;;;9.92;83.98;99839.69;5077718;28;20029;-93
2021/11/19 04:25:53;;;;;;;22.25;10.70;;;;;;;9.80;83.84;99815.88;5077500;28;20037;-92
2021/11/19 04:28:21;;;;;;;23.63;10.07;;;;;;;9.79;84.09;99820.31;5077876;28;20108;-91
2021/11/19 04:30:49;;;;;;;21.77;11.00;;;;;;;9.93;83.74;99836.16;5073817;28;20480;-92
2021/11/19 04:33:17;;;;;;;22.80;10.03;;;;;;;10.00;83.60;99847.63;5073794;28;20090;-93
2021/11/19 04:35:43;;;;;;;23.73;10.30;;;;;;;9.91;84.05;99845.94;5076563;28;20143;-93
2021/11/19 04:38:09;;;;;;;24.27;11.27;;;;;;;9.74;84.12;99823.91;5078008;28;20041;-92
2021/11/19 04:40:37;;;;;;;19.25;9.68;;;;;;;9.87;84.64;99849.50;5075348;28;20132;-93
2021/11/19 04:43:04;;;;;;;20.42;10.68;;;;;;;9.84;84.67;99857.47;5075374;28;20112;-93
2021/11/19 04:45:33;;;;;;;20.50;10.65;;;;;;;9.73;84.94;99838.94;5075460;28;20541;-93
2021/11/19 04:47:59;;;;;;;19.83;9.75;;;;;;;9.78;84.81;99846.88;5076494;28;20131;-92
2021/11/19 04:50:28;;;;;;;22.65;9.52;;;;;;;9.73;84.93;99844.25;5077307;28;20052;-92
2021/11/19 04:52:55;;;;;;;22.73;10.10;;;;;;;9.60;85.34;99826.63;5076782;28;20040;-93
2021/11/19 04:55:22;;;;;;;21.38;10.45;;;;;;;9.57;85.63;99832.84;5076667;28;20045;-92
2021/11/19 04:57:48;;;;;;;25.17;11.32;;;;;;;9.65;85.56;99840.78;5076287;28;20525;-93
2021/11/19 05:00:23;;;;;;;23.83;10.82;;;;;;;9.75;85.16;99837.16;5073478;28;20032;-92
2021/11/19 05:02:51;;;;;;;23.95;11.18;;;;;;;9.88;84.55;99837.97;5074268;28;20041;-91
2021/11/19 05:05:18;;;;;;;26.58;12.45;;;;;;;9.92;84.16;99831.72;5075627;28;20162;-91
2021/11/19 05:07:44;;;;;;;23.38;11.02;;;;;;;10.06;83.83;99844.91;5075783;28;20041;-93
2021/11/19 05:10:10;;;;;;;20.63;9.10;;;;;;;9.93;83.95;99827.28;5075998;28;20037;-92
2021/11/19 05:12:40;;;;;;;21.05;9.68;;;;;;;10.00;84.06;99834.34;5075795;28;20063;-93
2021/11/19 05:15:09;;;;;;;19.08;10.18;;;;;;;10.01;83.97;99844.94;5074181;28;20049;-94
2021/11/19 05:17:36;;;;;;;18.90;10.73;;;;;;;10.07;84.24;99855.53;5074533;28;20110;-90
2021/11/19 05:20:06;;;;;;;21.77;10.07;;;;;;;9.97;84.00;99832.56;5075886;28;20071;-92
2021/11/19 05:22:33;;;;;;;21.55;9.57;;;;;;;9.97;83.92;99839.66;5076106;28;20060;-93
2021/11/19 05:25:00;;;;;;;24.15;9.30;;;;;;;9.91;84.12;99839.69;5076250;28;20043;-92
2021/11/19 05:27:26;;;;;;;23.63;11.43;;;;;;;9.90;84.15;99838.81;5076094;28;20419;-93
2021/11/19 05:29:52;;;;;;;20.95;10.57;;;;;;;9.79;84.26;99833.59;5075712;28;20040;-92
2021/11/19 05:32:18;;;;;;;22.35;10.00;;;;;;;9.84;84.75;99849.50;5074871;28;20123;-92
2021/11/19 05:34:44;;;;;;;23.40;10.27;;;;;;;9.80;84.77;99856.63;5076137;28;20044;-93
2021/11/19 05:37:12;;;;;;;20.13;9.65;;;;;;;9.59;84.79;99823.09;5075728;28;20048;-92
2021/11/19 05:39:38;;;;;;;20.20;10.02;;;;;;;9.76;84.52;99843.34;5075708;28;20165;-93
2021/11/19 05:42:07;;;;;;;22.42;9.60;;;;;;;9.86;84.32;99861.00;5075790;28;20040;-92
2021/11/19 05:44:35;;;;;;;23.40;10.32;;;;;;;9.77;84.18;99837.16;5074732;28;20063;-92
2021/11/19 05:47:02;;;;;;;20.15;8.77;;;;;;;9.85;83.93;99851.28;5077102;28;20052;-93
2021/11/19 05:49:28;;;;;;;21.73;10.60;;;;;;;9.95;83.47;99858.25;5084247;28;20056;-92
2021/11/19 05:51:57;;;;;;;22.52;9.60;;;;;;;9.86;83.70;99851.25;5086956;28;20036;-89
2021/11/19 05:54:27;;;;;;;20.02;9.55;;;;;;;9.85;83.42;99857.47;5082295;28;20047;-90
2021/11/19 05:56:54;;;;;;;21.17;9.55;;;;;;;9.81;84.03;99860.16;5084139;28;20058;-93
2021/11/19 05:59:23;;;;;;;25.08;11.60;;;;;;;9.84;83.56;99865.44;5083302;28;20044;-92
2021/11/19 06:01:49;;;;;;;21.60;9.50;;;;;;;9.81;83.40;99857.50;5076123;28;20042;-91
2021/11/19 06:04:15;;;;;;;20.38;9.55;;;;;;;9.86;83.77;99879.59;5084996;28;20497;-92
2021/11/19 06:06:43;;;;;;;22.42;10.32;;;;;;;9.86;83.59;99885.78;5083884;28;20108;-93
2021/11/19 06:09:16;;;;;;;20.38;8.88;;;;;;;9.80;83.64;99874.31;5087669;28;20108;-94
2021/11/19 06:11:48;;;;;;;23.67;9.80;;;;;;;9.77;83.95;99885.84;5090173;28;20074;-94
2021/11/19 06:14:17;;;;;;;21.10;9.75;;;;;;;9.72;83.98;99887.66;5089370;28;20048;-94
2021/11/19 06:16:48;;;;;;;23.05;10.18;;;;;;;9.61;83.96;99884.19;5084027;28;20108;-92
2021/11/19 06:19:21;;;;;;;23.70;10.32;;;;;;;9.53;84.78;99896.59;5083854;28;20048;-92
2021/11/19 06:21:52;;;;;;;22.92;10.48;;;;;;;9.41;84.69;99885.16;5085833;28;20045;-94
2021/11/19 06:24:31;;;;;;;22.33;10.73;;;;;;;9.47;84.77;99900.16;5087786;28;20049;-93
2021/11/19 06:27:22;;;;;;;20.98;10.63;;;;;;;9.53;84.88;99915.19;5086171;28;20044;-93
2021/11/19 06:29:48;;;;;;;21.70;9.87;;;;;;;9.51;84.55;99891.28;5085583;28;20045;-95
2021/11/19 06:32:15;;;;;;;26.23;10.32;;;;;;;9.62;84.51;99912.50;5080742;28;20297;-95
2021/11/19 06:34:41;;;;;;;21.98;9.95;;;;;;;9.50;84.45;99881.59;5087668;28;20044;-94
2021/11/19 06:37:10;;;;;;;21.50;9.85;;;;;;;9.53;84.29;99883.34;5092391;28;20044;-96
2021/11/19 06:39:39;;;;;;;26.13;10.82;;;;;;;9.90;83.60;99912.34;5089267;28;20037;-90
2021/11/19 06:42:05;;;;;;;22.15;10.60;;;;;;;9.83;83.65;99900.88;5090493;28;20096;-92
2021/11/19 06:44:47;;;;;;;25.48;10.07;;;;;;;9.85;83.54;99902.63;5089550;28;20048;-95
2021/11/19 06:47:14;;;;;;;21.02;9.73;;;;;;;10.01;83.52;99929.97;5094277;28;20135;-93
2021/11/19 06:49:41;;;;;;;23.25;9.73;;;;;;;9.81;83.62;99898.22;5077243;28;20072;-94
2021/11/19 06:52:08;;;;;;;33.33;15.02;;;;;;;9.74;82.87;99915.09;5076318;28;20072;-94
2021/11/19 06:54:35;;;;;;;42.33;17.48;;;;;;;9.27;84.33;99897.59;5075246;28;20041;-95
2021/11/19 06:57:03;;;;;;;39.33;18.02;;;;;;;8.98;85.71;99903.00;5077694;28;20063;-94
2021/11/19 06:59:30;;;;;;;41.03;17.65;;;;;;;8.97;87.41;99925.09;5075612;28;20060;-95
2021/11/19 07:01:57;;;;;;;29.92;13.15;;;;;;;9.09;87.70;99917.13;5074373;28;20048;-93
2021/11/19 07:04:23;;;;;;;23.45;10.50;;;;;;;9.54;86.38;99939.09;5079626;28;20044;-96
2021/11/19 07:06:49;;;;;;;24.25;12.90;;;;;;;9.52;85.87;99919.63;5080296;28;20076;-94
2021/11/19 07:09:18;;;;;;;20.52;10.40;;;;;;;9.76;84.50;99909.75;5080690;28;20037;-94
2021/11/19 07:11:48;;;;;;;20.85;9.55;;;;;;;9.99;83.78;99920.25;5078417;28;20425;-95
2021/11/19 07:14:15;;;;;;;36.63;12.93;;;;;;;10.06;83.62;99927.28;5077159;28;20044;-95
2021/11/19 07:16:42;;;;;;;36.78;16.60;;;;;;;9.99;83.73;99925.56;5075455;28;20044;-95
2021/11/19 07:19:10;;;;;;;37.92;16.85;;;;;;;9.77;83.59;99904.44;5077301;28;20095;-95
2021/11/19 07:21:39;;;;;;;42.92;18.90;;;;;;;9.88;83.82;99942.44;5077777;28;20044;-92
2021/11/19 07:24:08;;;;;;;40.13;18.42;;;;;;;9.71;84.60;99941.66;5076500;28;20045;-96
2021/11/19 07:26:35;;;;;;;40.95;16.17;;;;;;;9.74;85.01;99954.94;5076147;28;20127;-95
2021/11/19 07:29:03;;;;;;;37.92;16.85;;;;;;;9.48;85.36;99925.84;5077070;28;20079;-93
2021/11/19 07:31:29;;;;;;;44.23;17.27;;;;;;;9.54;85.47;99946.16;5076267;28;20056;-95
2021/11/19 07:33:55;;;;;;;41.65;19.30;;;;;;;9.53;85.77;99949.72;5076639;28;20039;-94
2021/11/19 07:36:23;;;;;;;45.72;18.60;;;;;;;9.58;85.80;99971.81;5077568;28;20037;-95
2021/11/19 07:38:50;;;;;;;43.38;17.42;;;;;;;9.53;86.42;99973.63;5077485;28;20040;-95
2021/11/19 07:41:19;;;;;;;42.00;18.00;;;;;;;9.53;85.33;99976.28;5077411;28;20119;-94
2021/11/19 07:43:47;;;;;;;44.72;18.10;;;;;;;9.47;86.01;99977.16;5077885;28;20090;-94
2021/11/19 07:46:16;;;;;;;39.95;16.58;;;;;;;9.57;86.09;99978.03;5080266;28;20119;-95
2021/11/19 07:48:44;;;;;;;30.52;13.18;;;;;;;9.77;85.36;99964.66;5088158;28;20032;-94
2021/11/19 07:51:14;;;;;;;31.05;13.25;;;;;;;10.13;83.79;99992.81;5087169;28;20051;-95
2021/11/19 07:53:44;;;;;;;25.63;11.18;;;;;;;10.10;82.21;99960.94;5089315;28;20044;-94
2021/11/19 07:56:13;;;;;;;30.73;12.13;;;;;;;10.17;82.26;99951.13;5088269;28;20045;-95
2021/11/19 07:58:39;;;;;;;24.58;12.07;;;;;;;10.52;81.96;99979.28;5088935;28;20053;-93
2021/11/19 08:01:07;;;;;;;25.13;10.57;;;;;;;10.72;81.85;99979.16;5086022;28;20066;-94
2021/11/19 08:03:34;;;;;;;22.85;11.13;;;;;;;10.82;81.29;99952.47;5088400;28;20041;-96
2021/11/19 08:06:04;;;;;;;19.23;9.50;;;;;;;11.22;80.61;99978.69;5077400;28;20041;-92
2021/11/19 08:08:33;;;;;;;22.50;10.57;;;;;;;11.30;79.66;99958.19;5084104;28;20125;-92
2021/11/19 08:11:01;;;;;;;28.92;13.95;;;;;;;11.51;78.68;99959.72;5079281;28;20044;-93
2021/11/19 08:13:27;;;;;;;30.63;14.13;;;;;;;11.57;78.65;99953.44;5078078;28;20075;-91
2021/11/19 08:15:53;;;;;;;38.97;16.23;;;;;;;11.64;78.38;99964.88;5081856;28;20052;-94
2021/11/19 08:18:23;;;;;;;32.20;15.32;;;;;;;11.67;77.92;99979.06;5079270;28;20389;-93
2021/11/19 08:20:51;;;;;;;31.00;14.32;;;;;;;11.65;78.04;99964.88;5077682;28;20041;-95
2021/11/19 08:23:21;;;;;;;24.25;10.95;;;;;;;11.72;77.19;99957.69;5056961;28;20049;-94
2021/11/19 08:25:47;;;;;;;21.63;10.55;;;;;;;11.92;76.36;99970.78;5072530;28;20502;-93
2021/11/19 08:28:15;;;;;;;22.55;10.93;;;;;;;12.06;75.73;99968.81;5076471;28;20059;-94
2021/11/19 08:30:44;;;;;;;23.70;11.57;;;;;;;12.24;74.87;99982.78;5076603;28;20112;-94
2021/11/19 08:33:11;;;;;;;26.98;12.00;;;;;;;12.18;73.95;99965.09;5077100;28;20040;-94
2021/11/19 08:35:42;;;;;;;24.58;11.60;;;;;;;12.23;73.64;99951.69;5077184;28;20109;-93
2021/11/19 08:38:10;;;;;;;24.33;12.68;;;;;;;12.27;74.06;99958.75;5076912;28;20044;-93
2021/11/19 08:40:43;;;;;;;23.47;11.10;;;;;;;12.26;74.07;99944.53;5080733;28;20028;-93
2021/11/19 08:43:10;;;;;;;24.05;10.50;;;;;;;12.48;73.87;99974.41;5080847;28;20044;-94
2021/11/19 08:45:38;;;;;;;25.55;12.02;;;;;;;12.39;74.03;99955.03;5079683;28;20068;-95
2021/11/19 08:48:06;;;;;;;25.80;11.90;;;;;;;12.46;73.82;99957.56;5079737;28;20044;-94
2021/11/19 08:50:37;;;;;;;22.27;11.50;;;;;;;12.48;72.96;99952.19;5081161;28;20040;-94
2021/11/19 08:53:04;;;;;;;27.10;11.95;;;;;;;12.43;73.72;99941.59;5080005;28;20114;-95
2021/11/19 08:55:31;;;;;;;18.33;9.60;;;;;;;12.61;71.38;99934.22;5080152;28;20516;-93
2021/11/19 08:57:57;;;;;;;20.30;10.30;;;;;;;12.87;71.72;99960.44;5080324;28;20367;-94
2021/11/19 09:00:28;;;;;;;21.55;10.27;;;;;;;12.87;71.79;99952.44;5080756;28;20040;-94
2021/11/19 09:02:57;;;;;;;20.05;9.93;;;;;;;12.82;71.18;99943.66;5080985;28;20506;-95
2021/11/19 09:05:24;;;;;;;17.73;9.35;;;;;;;13.14;72.12;99951.94;5081132;28;20040;-95
2021/11/19 09:07:50;;;;;;;18.88;9.25;;;;;;;13.28;70.67;99933.00;5081342;28;20049;-95
2021/11/19 09:10:16;;;;;;;21.38;10.88;;;;;;;13.35;69.69;99923.09;5079618;28;20135;-95
2021/11/19 09:12:44;;;;;;;22.23;10.68;;;;;;;13.43;70.03;99938.97;5079705;28;20498;-94
2021/11/19 09:15:13;;;;;;;20.85;9.90;;;;;;;13.59;69.87;99951.09;5081168;28;20389;-95
2021/11/19 09:18:13;;;;;;;22.83;10.95;;;;;;;13.45;70.10;99929.13;5082130;28;20453;-94
2021/11/19 09:20:53;;;;;;;21.08;10.70;;;;;;;13.46;68.71;99930.88;5002271;28;20064;-95
2021/11/19 09:23:22;;;;;;;18.52;9.65;;;;;;;13.49;69.47;99931.72;5011990;28;20050;-95
2021/11/19 09:25:50;;;;;;;21.52;10.50;;;;;;;13.34;68.99;99914.19;5020647;28;20548;-95
2021/11/19 09:28:20;;;;;;;35.40;16.75;;;;;;;13.42;70.98;99930.06;5017884;28;20042;-95
2021/11/19 09:30:49;;;;;;;39.53;17.65;;;;;;;13.29;71.92;99931.22;5002489;28;20089;-93
2021/11/19 09:33:18;;;;;;;;;;;;;;;13.31;72.35;99954.31;4999997;28;20042;-93
2021/11/19 09:35:45;;;;;;;36.63;16.67;;;;;;;13.07;73.49;99930.72;5001212;28;20335;-93
2021/11/19 09:38:13;;;;;;;34.60;15.25;;;;;;;13.10;73.29;99909.31;5000254;28;20085;-93
2021/11/19 09:40:43;;;;;;;31.57;14.40;;;;;;;13.44;73.16;99927.38;5013488;28;20050;-93
2021/11/19 09:43:22;;;;;;;31.83;14.80;;;;;;;13.56;72.25;99925.31;5003636;28;20475;-93
2021/11/19 09:46:07;;;;;;;33.50;15.02;;;;;;;13.66;72.94;99893.94;5006400;28;20095;-94
2021/11/19 09:49:02;;;;;;;32.88;15.88;;;;;;;13.89;70.42;99922.84;5010185;28;20050;-93
2021/11/19 09:52:09;;;;;;;35.05;14.60;;;;;;;13.74;71.68;99936.53;4996076;28;20042;-93
2021/11/19 09:55:06;;;;;;;32.20;14.50;;;;;;;13.78;71.70;99911.50;4972558;28;20057;-92
2021/11/19 09:58:13;;;;;;;32.35;14.73;;;;;;;13.92;71.17;99901.41;5074021;28;20044;-93
2021/11/19 10:00:54;;;;;;;31.63;14.07;;;;;;;14.12;70.44;99916.97;5077090;28;20094;-94
2021/11/19 10:03:39;;;;;;;28.73;13.95;;;;;;;14.14;69.66;99901.78;5074356;28;20042;-92
2021/11/19 10:06:11;;;;;;;29.00;14.05;;;;;;;14.21;68.65;99909.66;5079757;28;20045;-93
2021/11/19 10:08:55;;;;;;;25.00;13.15;;;;;;;14.39;69.87;99912.75;5080562;28;20108;-93
2021/11/19 10:11:30;;;;;;;27.67;13.77;;;;;;;14.41;68.86;99909.16;5075284;28;20044;-93
2021/11/19 10:14:18;;;;;;;28.63;13.43;;;;;;;14.39;67.61;99895.81;5078983;28;20048;-93
2021/11/19 10:16:56;;;;;;;29.07;12.10;;;;;;;14.51;67.13;99908.91;5084601;28;20037;-93
2021/11/19 10:19:26;;;;;;;19.90;9.23;;;;;;;14.52;65.47;99889.25;5067033;28;20044;-92
2021/11/19 10:22:03;;;;;;;19.73;9.35;;;;;;;14.64;64.73;99893.44;5077859;28;20037;-93
2021/11/19 10:24:37;;;;;;;17.23;8.57;;;;;;;14.57;64.96;99882.03;5076190;28;20052;-91
2021/11/19 10:27:06;;;;;;;17.88;8.38;;;;;;;14.62;64.17;99883.72;5077025;28;20440;-93
2021/11/19 10:29:35;;;;;;;;;;;;;;;14.70;65.57;99904.00;5077355;28;20037;-93
2021/11/19 10:32:04;;;;;;;31.83;13.02;;;;;;;14.53;67.26;99874.97;5079728;28;19920;-94
2021/11/19 10:34:32;;;;;;;;;;;;;;;14.65;67.71;99899.69;5077727;28;20067;-92
2021/11/19 10:37:22;;;;;;;25.38;12.88;;;;;;;14.57;68.27;99900.75;5073857;28;19920;-93
2021/11/19 10:40:29;;;;;;;27.23;12.68;;;;;;;14.41;68.92;99882.41;5071014;28;20074;-93
2021/11/19 10:43:19;;;;;;;28.13;12.60;;;;;;;14.42;68.10;99898.44;5073362;28;20084;-93
2021/11/19 10:46:13;;;;;;;23.35;11.23;;;;;;;14.46;67.82;99893.88;5073446;28;20131;-93
2021/11/19 10:49:12;;;;;;;22.67;11.82;;;;;;;14.31;67.86;99876.38;5070010;28;20048;-93
2021/11/19 10:52:19;;;;;;;22.23;10.82;;;;;;;14.43;67.29;99889.47;5067372;28;20050;-93
2021/11/19 10:55:24;;;;;;;20.08;10.60;;;;;;;14.42;67.21;99874.34;5071685;28;20094;-93
2021/11/19 10:58:28;;;;;;;22.83;10.63;;;;;;;14.44;66.61;99860.91;5073160;28;20032;-93
2021/11/19 11:01:14;;;;;;;20.30;10.07;;;;;;;14.48;67.14;99866.16;5040872;28;20078;-93
2021/11/19 11:04:04;;;;;;;22.42;11.65;;;;;;;14.47;68.32;99856.38;5074094;28;20048;-93
2021/11/19 11:06:35;;;;;;;24.10;11.77;;;;;;;14.56;66.71;99866.88;5074008;28;20155;-93
2021/11/19 11:09:20;;;;;;;21.80;11.25;;;;;;;14.29;66.52;99828.28;5070738;28;20048;-93
2021/11/19 11:11:54;;;;;;;23.95;12.75;;;;;;;14.47;68.05;99855.50;5074267;28;20046;-91
2021/11/19 11:14:20;;;;;;;19.23;11.52;;;;;;;14.53;67.97;99849.97;5070410;28;20057;-93
2021/11/19 11:16:49;;;;;;;20.25;10.88;;;;;;;14.52;68.23;99846.41;5073373;28;20041;-92
2021/11/19 11:19:19;;;;;;;22.10;10.57;;;;;;;14.48;66.86;99841.19;5075270;28;20140;-92
2021/11/19 11:22:00;;;;;;;25.60;12.13;;;;;;;14.44;67.10;99828.81;5075373;28;20060;-92
2021/11/19 11:24:33;;;;;;;27.27;13.85;;;;;;;14.44;67.27;99821.63;5074158;28;20476;-93
2021/11/19 11:27:14;;;;;;;23.98;11.40;;;;;;;14.51;67.79;99833.97;5071416;28;20048;-92
2021/11/19 11:30:05;;;;;;;26.85;13.02;;;;;;;14.56;68.39;99829.38;5065826;28;20440;-93
2021/11/19 11:33:04;;;;;;;25.83;11.88;;;;;;;14.61;68.72;99836.44;5070017;28;20048;-93
2021/11/19 11:35:40;;;;;;;24.63;11.52;;;;;;;14.64;67.81;99842.59;5075547;28;20037;-93
2021/11/19 11:38:24;;;;;;;24.42;11.70;;;;;;;14.60;67.89;99821.31;5075895;28;20054;-92